KMWL/MWL METAR and TAF weather

Enter ICAO airport designator
Station Type Date Time Source
KMWL METAR 2021/09/28 03:53 UTC NOAA

KMWL 280353Z AUTO 14008KT 10SM CLR 22/13 A2990 RMK AO2 SLP112 T02220128


Station Type Date Time Source
KMWL Decoded METAR 2021/09/28 03:53 UTC NOAA

MINERAL WELLS AIRPORT, TX, United States (KMWL) 32-47N 098-04W 284M
Sep 27, 2021 - 11:53 PM EDT / 2021.09.28 0353 UTC
Wind: from the SE (140 degrees) at 9 MPH (8 KT):0
Visibility: 10 mile(s):0
Sky conditions: clear
Temperature: 72.0 F (22.2 C)
Dew Point: 55.0 F (12.8 C)
Relative Humidity: 55%
Pressure (altimeter): 29.9 in. Hg (1012 hPa)
ob: KMWL 280353Z AUTO 14008KT 10SM CLR 22/13 A2990 RMK AO2 SLP112 T02220128
cycle: 4

Station Type Date Time Source
KMWL TAF UTC NOAA

Error!

Example: see airport list